Time;durP1;ratioP1;P1;durP2;ratioP2;P2;SDS_P1;SDS_P2;PMS_P1;PMS_P2;Temp;Humidity;BMP_temperature;BMP_pressure;BME280_temperature;BME280_humidity;BME280_pressure;Samples;Min_cycle;Max_cycle;Signal;HPM_P1;HPM_P2
2022/06/23 00:01:59;;;;;;;3.15;1.70;;;17.70;99.90;;;;;;5087082;28;20043;-81
2022/06/23 00:04:29;;;;;;;1.27;1.17;;;17.60;99.90;;;;;;5086727;28;20032;-81
2022/06/23 00:07:03;;;;;;;1.50;1.30;;;17.60;99.90;;;;;;5084576;28;20106;-81
2022/06/23 00:09:37;;;;;;;2.40;1.85;;;17.50;99.90;;;;;;5084619;28;20032;-81
2022/06/23 00:12:16;;;;;;;1.05;0.95;;;17.50;99.90;;;;;;5085892;28;20027;-81
2022/06/23 00:14:41;;;;;;;2.60;1.83;;;17.40;99.90;;;;;;5105202;28;20114;-80
2022/06/23 00:17:23;;;;;;;1.35;1.25;;;17.40;99.90;;;;;;5081263;28;20144;-81
2022/06/23 00:19:49;;;;;;;3.70;1.30;;;17.40;99.90;;;;;;5080565;28;20514;-81
2022/06/23 00:22:17;;;;;;;2.30;1.75;;;17.40;99.90;;;;;;5089734;28;20032;-81
2022/06/23 00:24:44;;;;;;;1.50;1.30;;;17.30;99.90;;;;;;5086510;28;20028;-81
2022/06/23 00:27:17;;;;;;;1.48;1.38;;;17.30;99.90;;;;;;5077574;28;20460;-81
2022/06/23 00:29:48;;;;;;;3.80;1.67;;;17.30;99.90;;;;;;5085923;28;20097;-81
2022/06/23 00:32:14;;;;;;;5.57;1.35;;;17.30;99.90;;;;;;5092287;28;20051;-81
2022/06/23 00:34:50;;;;;;;2.80;1.58;;;17.20;99.90;;;;;;5084136;28;20599;-81
2022/06/23 00:37:19;;;;;;;2.20;1.23;;;17.20;99.90;;;;;;5077702;28;20032;-81
2022/06/23 00:39:58;;;;;;;1.55;1.35;;;17.10;99.90;;;;;;5087365;28;20023;-81
2022/06/23 00:42:28;;;;;;;1.60;1.50;;;17.00;99.90;;;;;;5087288;28;20432;-81
2022/06/23 00:45:19;;;;;;;2.20;1.40;;;17.00;99.90;;;;;;5090566;28;20442;-81
2022/06/23 00:47:50;;;;;;;1.75;1.48;;;16.90;99.90;;;;;;5089008;28;20043;-81
2022/06/23 00:50:44;;;;;;;2.10;1.70;;;16.80;99.90;;;;;;5089607;28;20039;-81
2022/06/23 00:53:12;;;;;;;2.85;1.35;;;16.80;99.90;;;;;;5089087;28;20039;-81
2022/06/23 00:56:02;;;;;;;1.13;1.02;;;16.70;99.90;;;;;;5085836;28;20130;-81
2022/06/23 00:59:00;;;;;;;2.67;1.38;;;16.60;99.90;;;;;;5090413;28;20116;-82
2022/06/23 01:01:39;;;;;;;1.77;1.35;;;16.60;99.90;;;;;;5073524;28;20098;-83
2022/06/23 01:04:30;;;;;;;3.72;1.85;;;16.60;99.90;;;;;;5082794;28;20055;-80
2022/06/23 01:07:23;;;;;;;1.30;0.93;;;16.50;99.90;;;;;;5082851;28;20122;-81
2022/06/23 01:10:09;;;;;;;2.65;1.73;;;16.50;99.90;;;;;;5082155;28;20033;-81
2022/06/23 01:12:43;;;;;;;0.90;0.90;;;16.40;99.90;;;;;;5087850;28;20076;-81
2022/06/23 01:15:25;;;;;;;2.45;1.38;;;16.40;99.90;;;;;;5091309;28;20029;-81
2022/06/23 01:17:56;;;;;;;2.65;1.40;;;16.30;99.90;;;;;;5084206;28;20031;-80
2022/06/23 01:20:45;;;;;;;3.15;2.17;;;16.30;99.90;;;;;;5090821;28;20028;-81
2022/06/23 01:23:32;;;;;;;1.55;1.10;;;16.20;99.90;;;;;;5086245;28;20104;-81
2022/06/23 01:26:19;;;;;;;1.88;1.48;;;16.20;99.90;;;;;;5084457;28;20596;-82
2022/06/23 01:28:44;;;;;;;1.15;1.05;;;16.10;99.90;;;;;;5082637;28;20043;-81
2022/06/23 01:31:25;;;;;;;1.70;1.30;;;16.10;99.90;;;;;;5100038;28;20102;-81
2022/06/23 01:34:09;;;;;;;1.58;1.33;;;16.10;99.90;;;;;;5090190;28;20108;-82
2022/06/23 01:36:50;;;;;;;2.45;1.77;;;16.00;99.90;;;;;;5089222;28;20030;-81
2022/06/23 01:39:25;;;;;;;2.05;1.38;;;16.00;99.90;;;;;;5087673;28;20016;-82
2022/06/23 01:42:18;;;;;;;2.13;1.15;;;15.90;99.90;;;;;;5090535;28;20054;-82
2022/06/23 01:45:01;;;;;;;2.22;1.77;;;15.90;99.90;;;;;;5070768;28;20043;-82
2022/06/23 01:47:42;;;;;;;4.10;1.45;;;15.90;99.90;;;;;;5090578;28;20122;-82
2022/06/23 01:50:13;;;;;;;2.15;1.45;;;15.80;99.90;;;;;;5080582;28;20431;-82
2022/06/23 01:52:42;;;;;;;1.30;1.20;;;15.90;99.90;;;;;;5087757;28;20039;-82
2022/06/23 01:55:19;;;;;;;1.70;1.60;;;15.80;99.90;;;;;;5086316;28;20036;-81
2022/06/23 01:57:53;;;;;;;1.58;1.20;;;15.80;99.90;;;;;;5110129;28;20028;-81
2022/06/23 02:00:21;;;;;;;1.63;1.25;;;15.80;99.90;;;;;;5082320;28;20037;-82
2022/06/23 02:02:58;;;;;;;1.98;1.50;;;15.70;99.90;;;;;;5081894;28;20039;-82
2022/06/23 02:05:50;;;;;;;1.30;1.10;;;15.70;99.90;;;;;;5101780;28;20027;-81
2022/06/23 02:08:34;;;;;;;1.83;1.38;;;15.70;99.90;;;;;;5095905;28;20024;-81
2022/06/23 02:11:13;;;;;;;3.38;1.20;;;15.60;99.90;;;;;;5077965;28;20394;-81
2022/06/23 02:13:46;;;;;;;2.50;1.55;;;15.60;99.90;;;;;;5079558;28;20030;-81
2022/06/23 02:16:30;;;;;;;1.08;0.98;;;15.50;99.90;;;;;;5080025;28;20020;-81
2022/06/23 02:19:03;;;;;;;2.40;1.33;;;15.50;99.90;;;;;;5090660;28;20107;-82
2022/06/23 02:21:46;;;;;;;2.45;1.70;;;15.50;99.90;;;;;;5087263;28;20028;-81
2022/06/23 02:24:26;;;;;;;2.25;1.95;;;15.50;99.90;;;;;;5074029;28;20032;-81
2022/06/23 02:27:20;;;;;;;2.17;1.60;;;15.50;99.90;;;;;;5089582;28;20390;-81
2022/06/23 02:29:50;;;;;;;3.20;1.20;;;15.40;99.90;;;;;;5082560;28;20263;-81
2022/06/23 02:32:42;;;;;;;1.98;1.50;;;15.40;99.90;;;;;;5080923;28;20020;-81
2022/06/23 02:35:23;;;;;;;1.58;1.48;;;15.40;99.90;;;;;;5083568;28;20056;-82
2022/06/23 02:38:12;;;;;;;2.65;1.63;;;15.40;99.90;;;;;;5100980;28;20085;-81
2022/06/23 02:40:45;;;;;;;2.97;1.67;;;15.40;99.90;;;;;;5091413;28;20429;-81
2022/06/23 02:43:27;;;;;;;6.03;1.63;;;15.40;99.90;;;;;;5089103;28;20038;-81
2022/06/23 02:46:16;;;;;;;4.78;1.88;;;15.30;99.90;;;;;;5083030;28;20036;-81
2022/06/23 02:49:04;;;;;;;2.42;1.48;;;15.40;99.90;;;;;;5081639;28;20382;-82
2022/06/23 02:51:41;;;;;;;1.33;1.23;;;15.30;99.90;;;;;;5078041;28;20106;-82
2022/06/23 02:54:42;;;;;;;2.58;1.83;;;15.30;99.90;;;;;;5083141;28;20032;-82
2022/06/23 02:57:24;;;;;;;2.38;1.48;;;15.30;99.90;;;;;;5083662;28;20012;-81
2022/06/23 03:00:41;;;;;;;1.92;1.50;;;15.30;99.90;;;;;;5061560;28;20482;-82
2022/06/23 03:03:16;;;;;;;1.83;1.38;;;15.30;99.90;;;;;;4934092;29;20031;-82
2022/06/23 03:06:16;;;;;;;2.38;1.80;;;15.30;99.90;;;;;;4966699;28;20037;-82
2022/06/23 03:08:47;;;;;;;2.70;1.88;;;15.20;99.90;;;;;;5050110;28;20048;-82
2022/06/23 03:11:51;;;;;;;2.25;1.55;;;15.30;99.90;;;;;;5079849;28;20032;-82
2022/06/23 03:14:19;;;;;;;3.25;1.52;;;15.20;99.90;;;;;;5073578;28;20079;-82
2022/06/23 03:16:51;;;;;;;2.42;1.50;;;15.20;99.90;;;;;;5071254;28;20028;-82
2022/06/23 03:19:25;;;;;;;2.03;1.67;;;15.20;99.90;;;;;;5067931;28;20437;-82
2022/06/23 03:22:01;;;;;;;2.83;1.75;;;15.20;99.90;;;;;;5067114;28;20558;-82
2022/06/23 03:24:40;;;;;;;4.05;1.75;;;15.20;99.90;;;;;;5077453;28;20387;-82
2022/06/23 03:27:20;;;;;;;2.33;1.75;;;15.30;99.90;;;;;;5081292;28;20368;-82
2022/06/23 03:29:58;;;;;;;11.43;2.03;;;15.20;99.90;;;;;;5062229;28;20086;-82
2022/06/23 03:32:35;;;;;;;2.30;1.45;;;15.20;99.90;;;;;;5064676;28;20063;-82
2022/06/23 03:35:22;;;;;;;2.55;1.52;;;15.30;99.90;;;;;;5060177;28;20039;-82
2022/06/23 03:38:07;;;;;;;1.50;1.30;;;15.30;99.90;;;;;;5070476;28;20082;-83
2022/06/23 03:43:46;;;;;;;1.58;1.48;;;15.40;99.90;;;;;;5064287;28;20028;-82
2022/06/23 03:46:26;;;;;;;8.45;2.13;;;15.40;99.90;;;;;;5063004;28;20121;-82
2022/06/23 03:49:07;;;;;;;2.10;1.90;;;15.40;99.90;;;;;;5068623;28;20170;-82
2022/06/23 03:51:37;;;;;;;2.42;1.45;;;15.40;99.90;;;;;;5065412;28;20039;-82
2022/06/23 03:54:13;;;;;;;2.53;1.75;;;15.40;99.90;;;;;;5068693;28;20036;-82
2022/06/23 03:56:47;;;;;;;1.90;1.52;;;15.30;99.90;;;;;;5090538;28;20028;-82
2022/06/23 03:59:28;;;;;;;5.35;2.38;;;15.40;99.90;;;;;;5085020;28;20089;-82
2022/06/23 04:02:14;;;;;;;2.55;1.80;;;15.40;99.90;;;;;;5081267;28;20039;-82
2022/06/23 04:05:07;;;;;;;12.95;2.40;;;15.50;99.90;;;;;;5101977;28;20061;-82
2022/06/23 04:07:42;;;;;;;3.35;2.00;;;15.60;99.90;;;;;;5083743;28;20027;-82
2022/06/23 04:10:28;;;;;;;2.03;1.30;;;15.60;99.90;;;;;;5091209;28;20024;-83
2022/06/23 04:12:59;;;;;;;2.40;1.60;;;15.60;99.90;;;;;;5084739;28;20024;-80
2022/06/23 04:15:43;;;;;;;1.85;1.60;;;15.70;99.90;;;;;;5086608;28;20019;-83
2022/06/23 04:18:22;;;;;;;1.70;1.48;;;15.70;99.90;;;;;;5091541;28;20067;-83
2022/06/23 04:20:56;;;;;;;2.72;1.85;;;15.70;99.90;;;;;;5078721;28;20028;-83
2022/06/23 04:23:44;;;;;;;1.67;1.25;;;15.80;99.90;;;;;;5085386;28;20039;-83
2022/06/23 04:26:18;;;;;;;2.67;1.38;;;15.90;99.90;;;;;;5095071;28;20068;-83
2022/06/23 04:29:05;;;;;;;2.15;1.45;;;15.90;99.90;;;;;;5081175;28;20034;-83
2022/06/23 04:31:35;;;;;;;2.10;1.50;;;15.90;99.90;;;;;;5083739;28;20028;-83
2022/06/23 04:34:02;;;;;;;3.55;2.25;;;15.90;99.90;;;;;;5089625;28;20020;-83
2022/06/23 04:36:33;;;;;;;2.05;1.42;;;16.00;99.90;;;;;;5091002;28;20024;-82
2022/06/23 04:39:08;;;;;;;2.70;1.38;;;15.90;99.90;;;;;;5092312;28;20040;-83
2022/06/23 04:41:47;;;;;;;2.42;1.70;;;16.00;99.90;;;;;;5091132;28;20059;-83
2022/06/23 04:44:19;;;;;;;2.63;1.38;;;16.10;99.90;;;;;;5085524;28;20028;-82
2022/06/23 04:46:54;;;;;;;2.95;1.63;;;16.10;99.90;;;;;;5089995;28;20032;-82
2022/06/23 04:49:24;;;;;;;2.05;1.38;;;16.20;99.90;;;;;;5087327;28;20070;-81
2022/06/23 04:52:25;;;;;;;2.35;1.70;;;16.20;99.90;;;;;;5081101;28;20123;-82
2022/06/23 04:55:01;;;;;;;1.58;1.15;;;16.30;99.90;;;;;;5033360;28;20046;-82
2022/06/23 04:57:34;;;;;;;2.72;1.42;;;16.30;99.90;;;;;;5086204;28;20046;-83
2022/06/23 05:00:02;;;;;;;2.03;1.35;;;16.40;99.90;;;;;;5090435;28;20133;-83
2022/06/23 05:02:47;;;;;;;1.83;1.60;;;16.40;99.90;;;;;;5097315;28;20451;-82
2022/06/23 05:05:19;;;;;;;1.67;1.30;;;16.40;99.90;;;;;;5074330;28;20028;-81
2022/06/23 05:08:02;;;;;;;2.88;1.83;;;16.50;99.90;;;;;;5073751;28;20047;-82
2022/06/23 05:10:33;;;;;;;2.22;1.65;;;16.60;99.90;;;;;;5082897;28;20023;-83
2022/06/23 05:13:05;;;;;;;2.33;1.70;;;16.60;99.90;;;;;;5085540;28;20028;-82
2022/06/23 05:15:36;;;;;;;1.77;1.38;;;16.60;99.90;;;;;;5084326;28;20455;-82
2022/06/23 05:18:08;;;;;;;2.13;1.47;;;16.60;99.90;;;;;;5092413;28;20028;-81
2022/06/23 05:20:40;;;;;;;1.30;1.20;;;16.60;99.90;;;;;;5084002;28;20032;-82
2022/06/23 05:23:14;;;;;;;1.88;1.23;;;16.70;99.90;;;;;;5075156;28;20035;-83
2022/06/23 05:25:46;;;;;;;1.95;1.38;;;16.80;99.90;;;;;;5082054;28;20023;-83
2022/06/23 05:28:29;;;;;;;1.95;1.42;;;16.80;99.90;;;;;;5095310;28;20040;-82
2022/06/23 05:31:01;;;;;;;1.23;1.13;;;16.90;99.90;;;;;;5077563;28;20036;-80
2022/06/23 05:33:45;;;;;;;1.98;1.40;;;16.90;99.90;;;;;;5082773;28;20029;-81
2022/06/23 05:36:24;;;;;;;2.63;1.48;;;16.90;99.90;;;;;;5080403;28;20036;-81
2022/06/23 05:39:04;;;;;;;1.45;1.27;;;16.90;99.90;;;;;;5086359;28;20060;-82
2022/06/23 05:41:36;;;;;;;2.30;1.30;;;17.00;99.90;;;;;;5087773;28;20032;-80
2022/06/23 05:44:13;;;;;;;2.67;1.27;;;17.10;99.90;;;;;;5080329;28;20059;-81
2022/06/23 05:46:44;;;;;;;2.25;1.52;;;17.10;99.90;;;;;;5074806;28;20036;-79
2022/06/23 05:49:36;;;;;;;4.05;1.55;;;17.20;99.90;;;;;;5071375;28;20063;-79
2022/06/23 05:52:05;;;;;;;4.15;1.98;;;17.30;99.90;;;;;;5075619;28;20158;-79
2022/06/23 05:54:40;;;;;;;2.10;1.70;;;17.30;99.90;;;;;;5086830;28;20097;-80
2022/06/23 05:57:22;;;;;;;2.10;1.05;;;17.30;99.90;;;;;;5089196;28;20051;-80
2022/06/23 06:00:04;;;;;;;1.90;1.40;;;17.40;99.90;;;;;;5079176;28;20039;-80
2022/06/23 06:02:42;;;;;;;2.60;1.45;;;17.40;99.90;;;;;;5106610;28;20024;-79
2022/06/23 06:05:21;;;;;;;1.63;1.17;;;17.50;99.90;;;;;;5107786;28;20039;-79
2022/06/23 06:07:46;;;;;;;1.48;1.38;;;17.60;99.90;;;;;;5109635;28;20024;-79
2022/06/23 06:10:18;;;;;;;2.30;1.45;;;17.60;99.90;;;;;;5088271;28;20013;-79
2022/06/23 06:12:44;;;;;;;2.25;1.08;;;17.70;99.90;;;;;;5088921;28;20028;-79
2022/06/23 06:15:19;;;;;;;2.25;1.15;;;17.80;99.90;;;;;;5087113;28;20520;-79
2022/06/23 06:17:46;;;;;;;3.55;1.48;;;17.90;99.90;;;;;;5089141;28;20426;-80
2022/06/23 06:20:13;;;;;;;1.25;1.15;;;18.00;99.90;;;;;;5088055;28;20024;-79
2022/06/23 06:23:04;;;;;;;1.88;1.38;;;18.10;99.90;;;;;;5088560;28;20101;-79
2022/06/23 06:25:35;;;;;;;1.70;1.33;;;18.20;99.90;;;;;;5081947;28;20020;-84
2022/06/23 06:28:18;;;;;;;1.63;1.25;;;18.30;99.90;;;;;;5087072;28;20390;-78
2022/06/23 06:31:14;;;;;;;1.42;1.00;;;18.30;99.90;;;;;;5074235;28;20034;-77
2022/06/23 06:34:05;;;;;;;1.17;1.08;;;18.40;99.90;;;;;;5073925;28;20112;-76
2022/06/23 06:36:45;;;;;;;1.75;1.63;;;18.50;99.90;;;;;;5071196;28;20035;-76
2022/06/23 06:39:26;;;;;;;2.92;1.50;;;18.60;99.90;;;;;;5087383;28;20031;-76
2022/06/23 06:41:57;;;;;;;2.53;1.33;;;18.70;99.90;;;;;;5094826;28;20106;-76
2022/06/23 06:44:23;;;;;;;1.02;0.93;;;18.70;99.90;;;;;;5070991;28;20035;-75
2022/06/23 06:46:49;;;;;;;2.03;1.05;;;18.90;99.90;;;;;;5074481;28;20036;-78
2022/06/23 06:49:19;;;;;;;1.65;1.13;;;18.90;99.90;;;;;;5081801;28;20032;-76
2022/06/23 06:51:45;;;;;;;3.03;1.27;;;18.90;99.90;;;;;;5084055;28;20023;-76
2022/06/23 06:54:16;;;;;;;1.85;1.30;;;19.10;99.90;;;;;;5085712;28;20051;-78
2022/06/23 06:56:49;;;;;;;2.22;1.30;;;19.10;99.90;;;;;;5088116;28;20024;-76
2022/06/23 06:59:24;;;;;;;2.72;1.50;;;19.20;97.50;;;;;;5082848;28;20032;-77
2022/06/23 07:01:56;;;;;;;1.30;1.20;;;19.20;96.30;;;;;;5089270;28;20077;-78
2022/06/23 07:04:29;;;;;;;2.03;1.45;;;19.30;97.40;;;;;;5079745;28;20020;-77
2022/06/23 07:06:59;;;;;;;2.58;1.27;;;19.40;98.60;;;;;;5084678;28;20457;-76
2022/06/23 07:09:30;;;;;;;1.67;1.47;;;19.50;98.40;;;;;;5088803;28;20028;-76
2022/06/23 07:12:21;;;;;;;2.10;1.60;;;19.60;96.60;;;;;;5104237;28;20997;-76
2022/06/23 07:15:02;;;;;;;1.88;1.55;;;19.70;96.90;;;;;;5071243;28;20029;-76
2022/06/23 07:17:34;;;;;;;1.98;1.30;;;19.80;97.00;;;;;;5082112;28;20033;-76
2022/06/23 07:20:28;;;;;;;2.15;1.35;;;19.90;95.50;;;;;;5081637;28;20032;-76
2022/06/23 07:23:01;;;;;;;1.85;0.95;;;20.00;95.70;;;;;;5077957;28;20115;-76
2022/06/23 07:25:33;;;;;;;1.42;1.33;;;20.00;96.00;;;;;;5088197;28;20055;-76
2022/06/23 07:28:13;;;;;;;1.88;1.15;;;20.10;95.90;;;;;;5088263;28;20119;-76
2022/06/23 07:30:51;;;;;;;1.80;1.30;;;20.20;94.60;;;;;;5087957;28;20383;-77
2022/06/23 07:33:42;;;;;;;2.28;1.23;;;20.30;94.20;;;;;;5088048;28;20055;-76
2022/06/23 07:36:21;;;;;;;3.28;1.45;;;20.40;93.70;;;;;;5087694;28;20027;-76
2022/06/23 07:38:56;;;;;;;1.83;1.48;;;20.50;93.00;;;;;;5088131;28;20032;-75
2022/06/23 07:41:41;;;;;;;1.50;1.15;;;20.60;94.50;;;;;;5087912;28;20082;-76
2022/06/23 07:44:17;;;;;;;1.50;1.10;;;20.70;92.90;;;;;;5088465;28;20363;-76
2022/06/23 07:46:43;;;;;;;1.50;1.40;;;20.90;93.80;;;;;;5087938;28;20038;-76
2022/06/23 07:49:09;;;;;;;1.27;1.13;;;20.90;91.80;;;;;;5087574;28;20111;-76
2022/06/23 07:51:36;;;;;;;1.23;1.10;;;20.90;92.40;;;;;;5087525;28;20074;-76
2022/06/23 07:54:02;;;;;;;1.52;1.05;;;20.90;91.60;;;;;;5087468;28;20259;-76
2022/06/23 07:56:31;;;;;;;1.23;1.00;;;21.00;92.40;;;;;;5087963;28;20034;-76
2022/06/23 07:59:02;;;;;;;1.20;1.10;;;21.10;91.60;;;;;;5087640;28;20039;-76
2022/06/23 08:01:38;;;;;;;1.15;1.05;;;21.20;92.50;;;;;;5088777;28;20402;-76
2022/06/23 08:04:41;;;;;;;1.77;1.40;;;21.30;90.60;;;;;;5091651;28;20067;-77
2022/06/23 08:07:09;;;;;;;1.80;1.10;;;21.60;89.60;;;;;;5091081;28;20027;-76
2022/06/23 08:09:41;;;;;;;1.40;1.27;;;21.60;88.10;;;;;;5091377;28;20107;-76
2022/06/23 08:17:52;;;;;;;2.08;1.38;;;21.60;85.10;;;;;;5092014;28;20035;-77
2022/06/23 08:20:21;;;;;;;1.63;1.42;;;21.80;87.40;;;;;;5091600;28;20063;-76
2022/06/23 08:22:48;;;;;;;4.28;1.52;;;21.90;84.70;;;;;;5091504;28;20028;-76
2022/06/23 08:25:15;;;;;;;1.13;0.90;;;21.90;85.20;;;;;;5091081;28;20111;-77
2022/06/23 08:27:44;;;;;;;1.05;0.95;;;22.00;83.20;;;;;;5090585;28;20131;-77
2022/06/23 08:30:14;;;;;;;1.40;1.30;;;22.30;84.60;;;;;;5090872;28;20032;-76
2022/06/23 08:32:43;;;;;;;1.75;1.55;;;22.30;85.60;;;;;;5090499;28;20032;-76
2022/06/23 08:35:27;;;;;;;2.42;1.55;;;22.50;81.70;;;;;;5091076;28;20028;-75
2022/06/23 08:37:58;;;;;;;1.25;0.93;;;22.60;81.30;;;;;;5090543;28;20040;-76
2022/06/23 08:40:44;;;;;;;1.98;1.10;;;22.60;80.50;;;;;;5090554;28;20032;-77
2022/06/23 08:43:35;;;;;;;1.20;1.10;;;22.70;79.40;;;;;;5090596;28;20091;-76
2022/06/23 08:46:22;;;;;;;4.00;1.53;;;22.80;83.30;;;;;;5087336;28;20116;-76
2022/06/23 08:49:16;;;;;;;2.58;1.15;;;22.90;78.80;;;;;;5090881;28;20555;-76
2022/06/23 08:51:59;;;;;;;2.00;1.10;;;23.00;78.70;;;;;;5090649;28;20032;-78
2022/06/23 08:54:42;;;;;;;1.40;1.08;;;23.00;75.20;;;;;;5090702;28;20044;-75
2022/06/23 08:57:32;;;;;;;1.92;1.02;;;23.00;72.00;;;;;;5090273;28;20060;-78
2022/06/23 09:00:10;;;;;;;1.08;0.93;;;23.00;73.70;;;;;;5090326;28;20501;-78
2022/06/23 09:02:48;;;;;;;5.13;1.23;;;22.90;72.10;;;;;;5089983;28;20027;-77
2022/06/23 09:05:34;;;;;;;1.35;1.00;;;23.10;75.70;;;;;;5090500;28;20481;-77
2022/06/23 09:08:38;;;;;;;1.63;1.20;;;23.20;75.60;;;;;;5089812;28;20032;-78
2022/06/23 09:11:11;;;;;;;2.20;1.35;;;23.20;72.70;;;;;;5090163;28;20250;-77
2022/06/23 09:14:21;;;;;;;1.27;1.17;;;23.40;73.70;;;;;;5090286;28;20102;-76
2022/06/23 09:16:59;;;;;;;1.65;1.27;;;23.60;72.90;;;;;;5089713;28;20028;-76
2022/06/23 09:19:52;;;;;;;1.45;0.90;;;23.80;70.40;;;;;;5090067;28;20035;-76
2022/06/23 09:22:36;;;;;;;1.05;0.95;;;23.90;68.70;;;;;;5090228;28;20032;-75
2022/06/23 09:25:11;;;;;;;1.48;0.95;;;23.80;68.60;;;;;;5089455;28;20028;-75
2022/06/23 09:27:52;;;;;;;1.45;0.98;;;23.80;64.60;;;;;;5089256;28;20485;-76
2022/06/23 09:30:22;;;;;;;;;;;23.70;66.10;;;;;;5090541;28;20030;-76
2022/06/23 09:33:18;;;;;;;1.60;1.20;;;23.80;63.20;;;;;;5089684;28;19907;-76
2022/06/23 09:36:21;;;;;;;1.25;1.10;;;24.00;63.10;;;;;;5089354;28;20063;-76
2022/06/23 09:39:13;;;;;;;1.08;0.98;;;24.20;64.40;;;;;;5089746;28;20749;-76
2022/06/23 09:41:49;;;;;;;1.88;1.30;;;24.10;60.80;;;;;;5090516;28;20055;-76
2022/06/23 09:44:29;;;;;;;1.08;0.98;;;24.30;60.90;;;;;;5089845;28;20599;-77
2022/06/23 09:47:05;;;;;;;1.20;1.10;;;24.30;61.10;;;;;;5089075;28;20458;-76
2022/06/23 09:50:07;;;;;;;1.98;1.08;;;24.40;67.30;;;;;;5089291;28;20114;-76
2022/06/23 09:53:10;;;;;;;1.13;1.00;;;24.60;66.00;;;;;;5088857;28;20474;-76
2022/06/23 09:56:17;;;;;;;1.20;1.10;;;24.50;60.80;;;;;;5040844;28;20403;-77
2022/06/23 09:59:03;;;;;;;1.42;1.17;;;24.80;61.30;;;;;;5075303;28;20036;-76
2022/06/23 10:01:46;;;;;;;1.67;1.30;;;24.90;59.40;;;;;;5089417;28;20085;-76
2022/06/23 10:04:54;;;;;;;1.20;0.93;;;24.90;59.40;;;;;;5089096;28;20055;-77
2022/06/23 10:07:58;;;;;;;1.95;1.30;;;25.40;61.40;;;;;;5089486;28;20461;-76
2022/06/23 10:10:52;;;;;;;0.82;0.82;;;25.60;57.30;;;;;;5088963;28;20028;-77
2022/06/23 10:13:34;;;;;;;1.10;1.00;;;25.90;57.20;;;;;;5089366;28;20056;-76
2022/06/23 10:16:03;;;;;;;1.35;1.25;;;26.00;54.70;;;;;;5089002;28;20024;-77
2022/06/23 10:18:54;;;;;;;4.88;0.98;;;25.90;53.60;;;;;;5089308;28;20134;-77
2022/06/23 10:21:20;;;;;;;;;;;25.60;54.50;;;;;;5089751;28;20039;-76
2022/06/23 10:24:23;;;;;;;1.08;1.00;;;25.80;58.20;;;;;;5088230;28;19990;-77
2022/06/23 10:27:30;;;;;;;1.30;1.20;;;26.10;58.10;;;;;;5031668;28;20036;-76
2022/06/23 10:30:15;;;;;;;1.30;0.90;;;26.20;57.10;;;;;;5088330;28;20059;-76
2022/06/23 10:32:51;;;;;;;1.20;1.10;;;26.20;53.70;;;;;;5088464;28;20070;-76
2022/06/23 10:35:48;;;;;;;1.30;1.08;;;26.30;55.00;;;;;;5088638;28;20086;-78
2022/06/23 10:38:22;;;;;;;1.23;0.93;;;26.30;54.90;;;;;;5088597;28;20039;-76
2022/06/23 10:41:03;;;;;;;0.77;0.77;;;26.30;56.60;;;;;;5088543;28;20035;-77
2022/06/23 10:44:01;;;;;;;1.20;1.10;;;26.30;55.50;;;;;;5088786;28;20024;-77
2022/06/23 10:46:58;;;;;;;1.55;1.08;;;26.60;56.20;;;;;;5074693;28;20563;-76
2022/06/23 10:49:24;;;;;;;1.33;0.98;;;27.00;56.70;;;;;;5088433;28;20098;-77
2022/06/23 10:51:55;;;;;;;1.92;1.30;;;27.20;52.00;;;;;;5088176;28;20455;-77
2022/06/23 10:55:05;;;;;;;1.20;1.10;;;27.20;50.30;;;;;;5088052;28;20044;-77
2022/06/23 10:58:01;;;;;;;1.00;0.93;;;27.30;53.40;;;;;;5088105;28;20032;-77
2022/06/23 11:00:50;;;;;;;1.15;1.05;;;27.60;54.60;;;;;;5088486;28;20016;-76
2022/06/23 11:03:37;;;;;;;1.23;1.13;;;27.80;52.20;;;;;;5088689;28;20070;-77
2022/06/23 11:06:18;;;;;;;1.00;0.90;;;27.80;53.60;;;;;;5087969;28;20016;-77
2022/06/23 11:09:10;;;;;;;;;;;27.80;51.40;;;;;;5088916;28;20074;-77
2022/06/23 11:11:56;;;;;;;;;;;27.80;47.70;;;;;;5089167;28;20252;-77
2022/06/23 11:14:27;;;;;;;;;;;27.70;52.30;;;;;;5088765;28;20263;-77
2022/06/23 11:16:53;;;;;;;;;;;28.00;54.40;;;;;;5088843;28;19915;-76
2022/06/23 11:19:18;;;;;;;;;;;28.30;51.60;;;;;;5088367;28;20297;-77
2022/06/23 11:22:02;;;;;;;;;;;28.30;52.10;;;;;;5088307;28;20117;-76
2022/06/23 11:24:38;;;;;;;;;;;28.40;51.10;;;;;;5088404;28;20259;-77
2022/06/23 11:27:12;;;;;;;;;;;28.50;50.40;;;;;;5088698;28;19904;-78
2022/06/23 11:29:56;;;;;;;;;;;28.90;50.30;;;;;;5089282;28;19908;-77
2022/06/23 11:32:29;;;;;;;;;;;29.00;50.70;;;;;;5088212;28;19915;-78
2022/06/23 11:35:01;;;;;;;;;;;29.40;48.80;;;;;;5088156;28;20690;-78
2022/06/23 11:37:48;;;;;;;;;;;29.40;49.30;;;;;;5091230;28;19911;-77
2022/06/23 11:40:22;;;;;;;;;;;29.80;46.50;;;;;;5092478;28;19904;-76
2022/06/23 11:42:52;;;;;;;;;;;29.70;45.20;;;;;;5091844;28;19904;-77
2022/06/23 11:45:26;;;;;;;;;;;29.60;44.00;;;;;;5092509;28;19904;-78
2022/06/23 11:48:08;;;;;;;;;;;30.00;47.00;;;;;;5092389;28;19959;-77
2022/06/23 11:50:38;;;;;;;;;;;30.50;47.10;;;;;;5092440;28;19911;-77
2022/06/23 11:53:12;;;;;;;;;;;30.70;47.20;;;;;;5092442;28;19911;-78
2022/06/23 11:55:51;;;;;;;;;;;30.80;46.80;;;;;;5092019;28;20059;-76
2022/06/23 11:58:26;;;;;;;;;;;30.70;45.40;;;;;;5091999;28;20363;-77
2022/06/23 12:01:14;;;;;;;;;;;30.90;47.40;;;;;;5091758;28;19912;-83
2022/06/23 12:03:52;;;;;;;;;;;31.50;45.10;;;;;;5092326;28;19915;-84
2022/06/23 12:06:36;;;;;;;;;;;31.20;42.30;;;;;;5072405;28;19915;-83
2022/06/23 12:09:20;;;;;;;;;;;31.40;44.00;;;;;;5084170;28;19915;-83
2022/06/23 12:11:46;;;;;;;;;;;31.20;44.90;;;;;;5094423;28;19957;-82
2022/06/23 12:14:13;;;;;;;;;;;31.20;40.10;;;;;;5091740;28;19907;-83
2022/06/23 12:16:40;;;;;;;;;;;31.30;44.20;;;;;;5093472;28;19904;-82
2022/06/23 12:19:08;;;;;;;;;;;31.20;43.20;;;;;;5112213;28;19904;-84
2022/06/23 12:21:57;;;;;;;;;;;31.70;43.00;;;;;;5110742;28;19904;-86
2022/06/23 12:24:22;;;;;;;;;;;31.80;41.90;;;;;;5099040;28;20377;-83
2022/06/23 12:27:12;;;;;;;;;;;32.30;39.40;;;;;;5092597;28;19904;-85
2022/06/23 12:29:56;;;;;;;;;;;32.80;38.70;;;;;;5108910;28;19907;-83
2022/06/23 12:32:26;;;;;;;;;;;32.00;40.50;;;;;;5112113;28;19904;-83
2022/06/23 12:35:04;;;;;;;;;;;32.60;40.60;;;;;;5111929;28;19914;-84
2022/06/23 12:37:36;;;;;;;;;;;33.20;37.80;;;;;;5104635;28;19912;-81
2022/06/23 12:40:14;;;;;;;;;;;33.60;38.30;;;;;;5092343;28;19965;-84
2022/06/23 12:42:45;;;;;;;;;;;33.20;39.30;;;;;;5090978;28;20385;-83
2022/06/23 12:45:17;;;;;;;;;;;33.60;37.70;;;;;;5091069;28;19911;-83
2022/06/23 12:47:45;;;;;;;;;;;35.00;37.30;;;;;;5094082;28;19925;-82
2022/06/23 12:50:46;;;;;;;;;;;35.30;40.40;;;;;;5109355;28;19926;-84
2022/06/23 12:53:24;;;;;;;;;;;35.80;35.70;;;;;;5001066;28;19910;-84
2022/06/23 12:56:14;;;;;;;;;;;37.40;37.00;;;;;;5078454;28;19981;-82
2022/06/23 12:58:47;;;;;;;;;;;37.90;35.40;;;;;;5090919;28;20018;-82
2022/06/23 13:01:20;;;;;;;;;;;38.30;32.90;;;;;;5092199;28;19961;-84
2022/06/23 13:04:03;;;;;;;;;;;39.50;32.80;;;;;;5091205;28;20003;-82
2022/06/23 13:06:48;;;;;;;;;;;39.70;31.90;;;;;;5091852;28;20014;-81
2022/06/23 13:09:24;;;;;;;;;;;39.40;32.60;;;;;;5078545;28;19934;-83
2022/06/23 13:12:08;;;;;;;;;;;41.20;30.50;;;;;;5091410;28;19912;-82
2022/06/23 13:14:36;;;;;;;;;;;41.20;29.90;;;;;;5091695;28;19904;-84
2022/06/23 13:17:08;;;;;;;;;;;43.10;28.40;;;;;;5091184;28;19908;-82
2022/06/23 13:19:48;;;;;;;;;;;44.00;38.50;;;;;;5090788;28;20199;-83
2022/06/23 13:22:14;;;;;;;;;;;44.60;29.30;;;;;;5087928;28;19908;-83
2022/06/23 13:24:42;;;;;;;;;;;43.20;27.50;;;;;;5099339;28;19911;-82
2022/06/23 13:27:15;;;;;;;;;;;43.70;30.50;;;;;;5094987;28;20330;-81
2022/06/23 13:29:47;;;;;;;;;;;45.90;27.70;;;;;;5087568;28;19916;-83
2022/06/23 13:32:18;;;;;;;;;;;46.10;26.80;;;;;;5091227;28;19904;-81
2022/06/23 13:34:49;;;;;;;;;;;44.70;27.40;;;;;;5090521;28;19953;-80
2022/06/23 13:37:17;;;;;;;;;;;44.70;26.80;;;;;;5090164;28;19911;-82
2022/06/23 13:39:50;;;;;;;;;;;45.50;26.70;;;;;;5070270;28;20006;-80
2022/06/23 13:42:25;;;;;;;;;;;46.00;26.20;;;;;;5093172;28;20007;-81
2022/06/23 13:45:09;;;;;;;;;;;46.50;26.20;;;;;;5085427;28;19908;-81
2022/06/23 13:47:40;;;;;;;;;;;45.50;27.40;;;;;;5091876;28;19903;-82
2022/06/23 13:50:05;;;;;;;;;;;45.30;27.10;;;;;;5088200;28;20359;-80
2022/06/23 13:52:57;;;;;;;;;;;45.00;25.70;;;;;;5093972;28;19969;-84
2022/06/23 13:55:26;;;;;;;;;;;46.60;27.40;;;;;;5075887;28;20389;-84
2022/06/23 13:57:52;;;;;;;;;;;46.60;25.10;;;;;;5079914;28;19970;-82
2022/06/23 14:00:30;;;;;;;;;;;43.10;28.40;;;;;;5090951;28;19908;-81
2022/06/23 14:03:02;;;;;;;;;;;43.10;28.50;;;;;;5089848;28;20667;-80
2022/06/23 14:05:43;;;;;;;;;;;42.40;28.30;;;;;;5083951;28;19963;-81
2022/06/23 14:08:16;;;;;;;;;;;42.90;28.10;;;;;;5110689;28;19908;-79
2022/06/23 14:10:44;;;;;;;;;;;45.20;26.20;;;;;;5111337;28;19998;-82
2022/06/23 14:13:16;;;;;;;;;;;46.70;25.80;;;;;;5110948;28;20002;-81
2022/06/23 14:16:00;;;;;;;;;;;45.60;26.20;;;;;;5104278;28;20584;-78
2022/06/23 14:18:44;;;;;;;;;;;46.70;25.90;;;;;;5081126;28;19978;-77